createdAt,value
2018-01-24T00:02:09.125Z,21.80
2018-01-24T00:04:36.965Z,21.80
2018-01-24T00:07:04.819Z,21.80
2018-01-24T00:09:32.739Z,21.80
2018-01-24T00:12:00.581Z,21.80
2018-01-24T00:14:28.461Z,21.80
2018-01-24T00:16:56.431Z,21.80
2018-01-24T00:19:24.960Z,21.80
2018-01-24T00:21:52.794Z,21.70
2018-01-24T00:24:20.724Z,21.80
2018-01-24T00:26:48.582Z,21.70
2018-01-24T00:29:16.510Z,21.70
2018-01-24T00:31:44.255Z,21.80
2018-01-24T00:34:12.074Z,21.70
2018-01-24T00:36:39.887Z,21.70
2018-01-24T00:39:07.716Z,21.80
2018-01-24T00:41:36.333Z,21.80
2018-01-24T00:44:04.060Z,21.70
2018-01-24T00:46:32.698Z,21.80
2018-01-24T00:49:00.555Z,21.70
2018-01-24T00:51:28.248Z,21.80
2018-01-24T00:53:56.022Z,21.80
2018-01-24T00:56:23.830Z,21.80
2018-01-24T00:58:51.595Z,21.80
2018-01-24T01:01:19.282Z,21.80
2018-01-24T01:03:47.058Z,21.80
2018-01-24T01:06:14.931Z,21.80
2018-01-24T01:08:42.791Z,21.80
2018-01-24T01:11:10.612Z,21.80
2018-01-24T01:13:38.397Z,21.80
2018-01-24T01:16:06.240Z,21.80
2018-01-24T01:18:34.055Z,21.80
2018-01-24T01:21:01.899Z,21.80
2018-01-24T01:23:29.753Z,21.80
2018-01-24T01:25:57.575Z,21.80
2018-01-24T01:28:25.423Z,21.80
2018-01-24T01:30:53.981Z,21.80
2018-01-24T01:33:21.798Z,21.80
2018-01-24T01:35:49.598Z,21.80
2018-01-24T01:38:17.444Z,21.80
2018-01-24T01:40:45.299Z,21.70
2018-01-24T01:43:13.174Z,21.70
2018-01-24T01:45:40.968Z,21.80
2018-01-24T01:48:08.937Z,21.70
2018-01-24T01:50:36.905Z,21.80
2018-01-24T01:53:04.675Z,21.70
2018-01-24T01:55:33.295Z,21.70
2018-01-24T01:58:01.172Z,21.70
2018-01-24T02:00:28.959Z,21.70
2018-01-24T02:02:56.844Z,21.70
2018-01-24T02:05:24.639Z,21.80
2018-01-24T02:07:52.475Z,21.70
2018-01-24T02:10:21.178Z,21.70
2018-01-24T02:12:49.056Z,21.70
2018-01-24T02:15:16.914Z,21.70
2018-01-24T02:17:44.875Z,21.70
2018-01-24T02:20:13.563Z,21.70
2018-01-24T02:22:41.452Z,21.70
2018-01-24T02:25:09.274Z,21.80
2018-01-24T02:27:37.193Z,21.80
2018-01-24T02:30:05.033Z,21.80
2018-01-24T02:32:32.933Z,21.80
2018-01-24T02:35:00.781Z,21.70
2018-01-24T02:37:28.714Z,21.80
2018-01-24T02:39:56.594Z,21.80
2018-01-24T02:42:24.435Z,21.80
2018-01-24T02:44:52.326Z,21.80
2018-01-24T02:47:20.146Z,21.80
2018-01-24T02:49:47.939Z,21.80
2018-01-24T02:52:15.823Z,21.80
2018-01-24T02:54:43.672Z,21.80
2018-01-24T02:57:11.525Z,21.80
2018-01-24T02:59:40.207Z,21.80
2018-01-24T03:02:08.794Z,21.80
2018-01-24T03:04:36.672Z,21.80
2018-01-24T03:07:05.278Z,21.70
2018-01-24T03:09:33.222Z,21.70
2018-01-24T03:12:01.074Z,21.80
2018-01-24T03:14:28.963Z,21.80
2018-01-24T03:16:56.905Z,21.80
2018-01-24T03:19:24.749Z,21.80
2018-01-24T03:21:52.593Z,21.80
2018-01-24T03:24:20.553Z,21.80
2018-01-24T03:26:48.484Z,21.80
2018-01-24T03:29:17.011Z,21.80
2018-01-24T03:31:44.843Z,21.80
2018-01-24T03:34:12.688Z,21.80
2018-01-24T03:36:40.500Z,21.80
2018-01-24T03:39:08.318Z,21.80
2018-01-24T03:41:36.100Z,21.80
2018-01-24T03:44:03.947Z,21.80
2018-01-24T03:46:31.838Z,21.80
2018-01-24T03:48:59.679Z,21.80
2018-01-24T03:51:27.506Z,21.90
2018-01-24T03:53:55.332Z,21.80
2018-01-24T03:56:23.156Z,21.90
2018-01-24T03:58:50.986Z,21.80
2018-01-24T04:01:18.916Z,21.80
2018-01-24T04:03:46.720Z,21.90
2018-01-24T04:06:14.560Z,21.90
2018-01-24T04:08:42.448Z,21.90
2018-01-24T04:11:10.259Z,21.90
2018-01-24T04:13:38.078Z,21.90
2018-01-24T04:16:05.947Z,21.90
2018-01-24T04:18:33.717Z,21.90
2018-01-24T04:21:01.523Z,21.90
2018-01-24T04:23:29.192Z,21.90
2018-01-24T04:25:56.958Z,21.90
2018-01-24T04:28:24.805Z,21.90
2018-01-24T04:30:52.668Z,21.90
2018-01-24T04:33:20.499Z,21.90
2018-01-24T04:35:48.331Z,21.90
2018-01-24T04:38:16.149Z,21.90
2018-01-24T04:40:44.678Z,21.90
2018-01-24T04:43:12.486Z,21.90
2018-01-24T04:45:40.213Z,21.90
2018-01-24T04:48:07.885Z,21.90
2018-01-24T04:50:35.625Z,21.90
2018-01-24T04:53:03.507Z,21.90
2018-01-24T04:55:31.213Z,21.90
2018-01-24T04:57:58.999Z,21.90
2018-01-24T05:00:26.713Z,21.90
2018-01-24T05:02:55.238Z,21.90
2018-01-24T05:05:23.069Z,21.90
2018-01-24T05:07:51.547Z,22.00
2018-01-24T05:10:20.099Z,21.90
2018-01-24T05:12:47.785Z,21.90
2018-01-24T05:15:16.313Z,22.00
2018-01-24T05:17:44.160Z,22.00
2018-01-24T05:20:11.971Z,22.00
2018-01-24T05:22:39.791Z,22.00
2018-01-24T05:25:07.649Z,22.00
2018-01-24T05:27:35.494Z,22.00
2018-01-24T05:30:04.135Z,21.90
2018-01-24T05:32:31.936Z,21.90
2018-01-24T05:35:00.560Z,21.90
2018-01-24T05:37:28.412Z,22.00
2018-01-24T05:39:56.219Z,21.90
2018-01-24T05:42:23.998Z,21.90
2018-01-24T05:44:52.595Z,21.90
2018-01-24T05:47:21.118Z,21.90
2018-01-24T05:49:48.960Z,21.90
2018-01-24T05:52:16.733Z,21.90
2018-01-24T05:54:44.626Z,21.90
2018-01-24T05:57:12.412Z,21.90
2018-01-24T05:59:40.273Z,22.00
2018-01-24T06:02:08.142Z,22.00
2018-01-24T06:04:35.996Z,22.00
2018-01-24T06:07:03.792Z,22.00
2018-01-24T06:09:31.433Z,22.00
2018-01-24T06:12:00.015Z,22.00
2018-01-24T06:14:27.892Z,22.00
2018-01-24T06:16:56.516Z,22.10
2018-01-24T06:19:24.380Z,22.00
2018-01-24T06:21:52.214Z,22.10
2018-01-24T06:24:20.026Z,22.10
2018-01-24T06:26:47.840Z,22.20
2018-01-24T06:29:15.670Z,22.20
2018-01-24T06:31:43.513Z,22.20
2018-01-24T06:34:11.358Z,22.20
2018-01-24T06:36:39.183Z,22.20
2018-01-24T06:39:07.687Z,22.20
2018-01-24T06:41:35.512Z,22.20
2018-01-24T06:44:04.117Z,22.10
2018-01-24T07:19:21.924Z,22.40
2018-01-24T07:21:50.047Z,21.80
2018-01-24T07:24:18.139Z,21.20
2018-01-24T07:26:46.050Z,20.80
2018-01-24T07:29:14.055Z,20.50
2018-01-24T07:31:42.131Z,21.00
2018-01-24T07:34:10.286Z,21.50
2018-01-24T07:36:50.308Z,21.90
2018-01-24T07:39:18.304Z,22.20
2018-01-24T07:41:46.260Z,22.40
2018-01-24T07:44:14.218Z,22.50
2018-01-24T07:46:42.303Z,22.50
2018-01-24T07:49:10.306Z,22.60
2018-01-24T07:51:38.385Z,22.60
2018-01-24T07:54:06.524Z,22.60
2018-01-24T07:56:34.377Z,22.60
2018-01-24T07:59:02.429Z,22.70
2018-01-24T08:01:30.359Z,22.70
2018-01-24T08:03:58.481Z,22.70
2018-01-24T08:06:26.806Z,22.60
2018-01-24T08:08:54.840Z,22.60
2018-01-24T08:11:22.870Z,22.70
2018-01-24T08:13:50.848Z,22.70
2018-01-24T08:16:19.412Z,22.80
2018-01-24T08:18:47.680Z,22.80
2018-01-24T08:21:16.388Z,22.80
2018-01-24T08:23:44.415Z,22.70
2018-01-24T08:26:12.459Z,22.80
2018-01-24T08:28:40.350Z,22.80
2018-01-24T08:31:08.437Z,22.80
2018-01-24T08:33:36.513Z,22.80
2018-01-24T08:36:04.603Z,22.80
2018-01-24T08:38:32.516Z,22.70
2018-01-24T08:41:00.606Z,22.70
2018-01-24T08:43:28.668Z,22.70
2018-01-24T08:45:56.795Z,22.70
2018-01-24T08:48:24.709Z,22.80
2018-01-24T08:50:53.486Z,22.90
2018-01-24T08:53:21.410Z,22.80
2018-01-24T08:55:49.390Z,22.90
2018-01-24T08:58:17.296Z,22.90
2018-01-24T09:00:45.269Z,22.80
2018-01-24T09:03:13.927Z,22.80
2018-01-24T09:05:41.799Z,22.90
2018-01-24T09:08:09.684Z,22.90
2018-01-24T09:10:37.569Z,22.90
2018-01-24T09:13:05.442Z,22.90
2018-01-24T09:15:33.407Z,22.90
2018-01-24T09:18:01.415Z,22.80
2018-01-24T09:20:29.260Z,22.80
2018-01-24T09:22:57.261Z,22.90
2018-01-24T09:25:25.283Z,22.90
2018-01-24T09:27:53.078Z,22.90
2018-01-24T09:30:20.926Z,22.90
2018-01-24T09:32:48.747Z,22.80
2018-01-24T09:35:17.398Z,22.90
2018-01-24T09:37:45.336Z,22.90
2018-01-24T09:40:13.166Z,22.90
2018-01-24T09:42:41.524Z,22.90
2018-01-24T09:45:09.856Z,22.90
2018-01-24T09:47:37.914Z,22.80
2018-01-24T09:50:06.439Z,22.90
2018-01-24T09:52:34.505Z,22.90
2018-01-24T09:55:02.985Z,22.80
2018-01-24T09:57:31.052Z,22.80
2018-01-24T09:59:59.379Z,22.80
2018-01-24T10:02:28.253Z,22.80
2018-01-24T10:04:56.401Z,22.80
2018-01-24T10:07:24.767Z,22.90
2018-01-24T10:09:52.763Z,22.90
2018-01-24T10:12:21.135Z,22.90
2018-01-24T10:14:49.590Z,22.90
2018-01-24T10:17:18.022Z,22.90
2018-01-24T10:19:45.941Z,22.90
2018-01-24T10:24:59.906Z,22.90
2018-01-24T10:27:28.377Z,22.90
2018-01-24T10:29:56.440Z,22.90
2018-01-24T10:32:24.618Z,23.00
2018-01-24T10:34:52.585Z,23.00
2018-01-24T10:37:20.766Z,23.00
2018-01-24T10:39:48.730Z,23.00
2018-01-24T10:42:17.000Z,22.90
2018-01-24T10:44:45.065Z,22.90
2018-01-24T10:47:13.282Z,22.90
2018-01-24T10:49:41.131Z,22.90
2018-01-24T10:52:09.270Z,22.90
2018-01-24T10:54:37.303Z,23.00
2018-01-24T10:57:05.413Z,23.00
2018-01-24T10:59:33.781Z,23.00
2018-01-24T11:02:01.593Z,23.00
2018-01-24T11:04:29.542Z,23.00
2018-01-24T11:06:57.405Z,22.90
2018-01-24T11:09:26.005Z,22.90
2018-01-24T11:11:53.908Z,22.90
2018-01-24T11:14:21.899Z,22.90
2018-01-24T11:16:49.818Z,22.80
2018-01-24T11:19:17.808Z,22.80
2018-01-24T11:21:45.736Z,22.80
2018-01-24T11:24:13.550Z,22.70
2018-01-24T11:26:41.626Z,22.80
2018-01-24T11:29:09.612Z,22.90
2018-01-24T11:31:37.638Z,22.90
2018-01-24T11:34:05.878Z,22.90
2018-01-24T11:36:33.822Z,22.90
2018-01-24T11:39:01.619Z,22.90
2018-01-24T11:41:29.554Z,22.90
2018-01-24T11:43:57.540Z,22.90
2018-01-24T11:46:26.164Z,22.90
2018-01-24T11:48:54.000Z,22.90
2018-01-24T11:51:21.989Z,22.90
2018-01-24T11:53:49.837Z,22.90
2018-01-24T11:56:17.778Z,22.90
2018-01-24T11:58:45.697Z,23.00
2018-01-24T12:01:13.746Z,22.90
2018-01-24T12:03:41.602Z,22.90
2018-01-24T12:06:09.501Z,22.90
2018-01-24T12:08:37.461Z,22.90
2018-01-24T12:11:05.342Z,22.90
2018-01-24T12:13:33.542Z,22.90
2018-01-24T12:16:01.420Z,22.90
2018-01-24T12:18:29.476Z,22.90
2018-01-24T12:20:58.333Z,22.90
2018-01-24T12:23:26.194Z,22.80
2018-01-24T12:25:54.062Z,22.90
2018-01-24T12:28:22.057Z,22.90
2018-01-24T12:30:50.199Z,22.90
2018-01-24T12:33:18.083Z,22.90
2018-01-24T12:35:45.837Z,22.90
2018-01-24T12:38:13.881Z,22.90
2018-01-24T12:40:41.820Z,22.90
2018-01-24T12:43:09.580Z,22.90
2018-01-24T12:45:37.521Z,22.80
2018-01-24T12:48:05.404Z,22.80
2018-01-24T12:50:33.385Z,22.80
2018-01-24T12:53:01.364Z,22.80
2018-01-24T12:55:29.243Z,22.80
2018-01-24T12:57:57.082Z,22.70
2018-01-24T13:00:24.962Z,22.70
2018-01-24T13:02:52.887Z,22.80
2018-01-24T13:05:20.720Z,22.80
2018-01-24T13:07:49.408Z,22.90
2018-01-24T13:10:17.348Z,22.90
2018-01-24T13:12:45.301Z,23.00
2018-01-24T13:15:13.142Z,23.00
2018-01-24T13:17:40.962Z,23.00
2018-01-24T13:20:08.918Z,23.00
2018-01-24T13:22:36.914Z,23.00
2018-01-24T13:25:04.833Z,23.00
2018-01-24T13:27:32.636Z,22.90
2018-01-24T13:30:00.622Z,22.90
2018-01-24T13:32:28.514Z,22.90
2018-01-24T13:34:57.139Z,23.00
2018-01-24T13:37:25.113Z,22.90
2018-01-24T13:39:52.942Z,23.00
2018-01-24T13:42:20.862Z,23.00
2018-01-24T13:44:48.705Z,23.00
2018-01-24T13:47:16.566Z,23.10
2018-01-24T13:49:44.528Z,23.00
2018-01-24T13:52:12.296Z,23.00
2018-01-24T13:54:40.127Z,23.00
2018-01-24T13:57:08.045Z,23.00
2018-01-24T13:59:35.920Z,23.00
2018-01-24T14:02:03.741Z,22.90
2018-01-24T14:04:31.762Z,22.90
2018-01-24T14:06:59.912Z,22.90
2018-01-24T14:09:27.858Z,22.90
2018-01-24T14:11:55.685Z,22.90
2018-01-24T14:14:23.477Z,23.00
2018-01-24T14:16:51.350Z,23.10
2018-01-24T14:19:19.208Z,23.10
2018-01-24T14:21:47.171Z,23.10
2018-01-24T14:24:15.086Z,23.10
2018-01-24T14:26:42.956Z,23.10
2018-01-24T14:29:10.898Z,23.10
2018-01-24T14:31:38.810Z,23.10
2018-01-24T14:34:06.698Z,23.10
2018-01-24T14:36:34.660Z,23.10
2018-01-24T14:39:02.560Z,23.10
2018-01-24T14:41:30.451Z,23.10
2018-01-24T14:43:58.353Z,23.10
2018-01-24T14:46:26.222Z,23.10
2018-01-24T14:48:54.055Z,23.20
2018-01-24T14:51:22.060Z,23.10
2018-01-24T14:53:49.887Z,23.10
2018-01-24T14:56:18.554Z,23.10
2018-01-24T14:58:46.706Z,23.10
2018-01-24T15:01:14.807Z,23.20
2018-01-24T15:03:43.583Z,23.10
2018-01-24T15:06:11.583Z,23.10
2018-01-24T15:08:39.526Z,23.10
2018-01-24T15:11:07.542Z,23.10
2018-01-24T15:13:35.483Z,23.10
2018-01-24T15:16:03.508Z,23.10
2018-01-24T15:18:31.451Z,23.10
2018-01-24T15:20:59.405Z,23.10
2018-01-24T15:23:27.346Z,23.20
2018-01-24T15:25:55.987Z,23.20
2018-01-24T15:28:24.059Z,23.20
2018-01-24T15:30:51.938Z,23.20
2018-01-24T15:33:20.007Z,23.10
2018-01-24T15:35:47.817Z,23.20
2018-01-24T15:38:15.757Z,23.10
2018-01-24T15:40:44.493Z,23.10
2018-01-24T15:43:12.390Z,23.10
2018-01-24T15:45:40.190Z,23.00
2018-01-24T15:48:08.141Z,23.00
2018-01-24T15:50:36.156Z,23.00
2018-01-24T15:53:04.078Z,23.10
2018-01-24T15:55:33.005Z,23.10
2018-01-24T15:58:01.159Z,23.10
2018-01-24T16:00:29.232Z,23.10
2018-01-24T16:02:57.706Z,23.10
2018-01-24T16:05:25.902Z,23.20
